Cinque Terre — IUTV — position and weather

sailwx.info

Track history (hours):
 
Tides and Currents Weather Stations Pressure Air Temp Water Temp Dewpoint Dewpoint Depression Visibility Wind Speed Wind Dir Waves Ship Positions

Cinque Terre

Last reported at 2018-Feb-18 10:39 UTC. Time now 2018-Feb-23 08:40 UTC.
Position N 40°35' E 014°17'.

Length 15 m; draft 1 m.

Type: Passenger vessel. MMSI: 247208400.

Date/timePositionNaut miles runAvg speedWind from/ knotsBaromVisibWave heightAir tempDewpointWater temp
2018-Feb-18 10:39N 40°35' E 014°17'3 9.3
2018-Feb-18 10:18N 40°37' E 014°20'2 6.7
2018-Feb-18 10:00N 40°38' E 014°23'1 2.1
2018-Feb-18 09:30N 40°38' E 014°21'5 0.3
2018-Feb-17 15:46N 40°35' E 014°17'  
2018-Feb-11 15:23N 40°36' E 014°18'1 0.0
2018-Feb-10 10:40N 40°35' E 014°17'3 8.8
2018-Feb-10 10:19N 40°37' E 014°20'2 6.3
2018-Feb-10 10:00N 40°38' E 014°23'1 2.3
2018-Feb-10 09:30N 40°38' E 014°24'0 0.2
2018-Feb-10 09:00N 40°38' E 014°24'  
Track history (hours):
 
Tides and Currents Weather Stations Pressure Air Temp Water Temp Dewpoint Dewpoint Depression Visibility Wind Speed Wind Dir Waves Ship Positions

Cinque Terre

Last reported at 2018-Feb-18 10:39 UTC. Time now 2018-Feb-23 08:40 UTC.
Position N 40°35' E 014°17'.

Length 15 m; draft 1 m.

Type: Passenger vessel. MMSI: 247208400.

Date/timePositionNaut miles runAvg speedWind from/ knotsBaromVisibWave heightAir tempDewpointWater temp
2018-Feb-18 10:39N 40°35' E 014°17'3 9.3
2018-Feb-18 10:18N 40°37' E 014°20'2 6.7
2018-Feb-18 10:00N 40°38' E 014°23'1 2.1
2018-Feb-18 09:30N 40°38' E 014°21'5 0.3
2018-Feb-17 15:46N 40°35' E 014°17'  
2018-Feb-11 15:23N 40°36' E 014°18'1 0.0
2018-Feb-10 10:40N 40°35' E 014°17'3 8.8
2018-Feb-10 10:19N 40°37' E 014°20'2 6.3
2018-Feb-10 10:00N 40°38' E 014°23'1 2.3
2018-Feb-10 09:30N 40°38' E 014°24'0 0.2
2018-Feb-10 09:00N 40°38' E 014°24'  

Dump ship's entire track history